createdAt,value
2018-12-31T00:01:56.325Z,10.27
2018-12-31T00:04:27.552Z,11.30
2018-12-31T00:06:58.757Z,11.53
2018-12-31T00:09:29.937Z,10.13
2018-12-31T00:12:01.196Z,9.73
2018-12-31T00:14:32.312Z,10.57
2018-12-31T00:17:03.543Z,13.43
2018-12-31T00:19:34.741Z,12.50
2018-12-31T00:22:05.980Z,7.70
2018-12-31T00:24:37.203Z,9.53
2018-12-31T00:27:08.346Z,10.27
2018-12-31T00:29:39.557Z,10.40
2018-12-31T00:32:10.737Z,8.97
2018-12-31T00:34:42.080Z,14.50
2018-12-31T00:37:13.295Z,10.13
2018-12-31T00:39:44.660Z,11.40
2018-12-31T00:42:15.887Z,10.67
2018-12-31T00:44:47.116Z,11.53
2018-12-31T00:47:18.398Z,12.57
2018-12-31T00:49:49.555Z,10.37
2018-12-31T00:52:20.794Z,9.30
2018-12-31T00:54:52.014Z,9.70
2018-12-31T00:57:23.289Z,9.67
2018-12-31T00:59:54.478Z,12.87
2018-12-31T01:02:25.867Z,8.00
2018-12-31T01:04:57.284Z,14.67
2018-12-31T01:07:28.471Z,12.60
2018-12-31T01:09:59.763Z,13.30
2018-12-31T01:12:30.964Z,11.53
2018-12-31T01:15:02.153Z,13.57
2018-12-31T01:17:33.557Z,14.17
2018-12-31T01:20:04.761Z,13.33
2018-12-31T01:22:36.170Z,11.17
2018-12-31T01:25:07.473Z,12.73
2018-12-31T01:27:38.806Z,15.87
2018-12-31T01:30:10.085Z,17.83
2018-12-31T01:32:41.263Z,14.53
2018-12-31T01:35:12.475Z,15.90
2018-12-31T01:37:43.652Z,14.80
2018-12-31T01:40:14.847Z,15.37
2018-12-31T01:42:46.032Z,16.77
2018-12-31T01:45:17.422Z,17.80
2018-12-31T01:47:48.602Z,13.57
2018-12-31T01:50:19.764Z,17.27
2018-12-31T01:52:51.921Z,19.53
2018-12-31T01:55:23.213Z,21.17
2018-12-31T01:57:54.414Z,17.43
2018-12-31T02:00:25.830Z,17.20
2018-12-31T02:02:57.042Z,16.27
2018-12-31T02:05:28.257Z,17.40
2018-12-31T02:07:59.537Z,17.00
2018-12-31T02:10:30.779Z,14.63
2018-12-31T02:13:01.939Z,16.23
2018-12-31T02:15:34.334Z,21.87
2018-12-31T02:18:05.570Z,18.97
2018-12-31T02:20:36.745Z,17.97
2018-12-31T02:23:07.982Z,22.43
2018-12-31T02:25:39.198Z,18.47
2018-12-31T02:28:10.406Z,20.47
2018-12-31T02:30:41.698Z,19.10
2018-12-31T02:33:12.965Z,17.33
2018-12-31T02:35:44.278Z,22.27
2018-12-31T02:38:15.608Z,22.37
2018-12-31T02:40:46.802Z,23.47
2018-12-31T02:43:17.946Z,22.77
2018-12-31T02:45:49.234Z,20.20
2018-12-31T02:48:20.533Z,20.17
2018-12-31T02:50:51.931Z,22.30
2018-12-31T02:53:23.280Z,18.70
2018-12-31T02:55:54.547Z,28.50
2018-12-31T02:58:25.864Z,20.50
2018-12-31T03:00:57.068Z,18.20
2018-12-31T03:03:28.286Z,17.37
2018-12-31T03:05:59.411Z,18.67
2018-12-31T03:08:30.708Z,17.50
2018-12-31T03:11:01.942Z,18.77
2018-12-31T03:13:33.093Z,16.23
2018-12-31T03:16:04.294Z,17.63
2018-12-31T03:18:35.601Z,18.20
2018-12-31T03:21:06.887Z,22.37
2018-12-31T03:23:38.084Z,20.73
2018-12-31T03:26:09.298Z,18.27
2018-12-31T03:28:40.469Z,23.13
2018-12-31T03:31:11.705Z,18.90
2018-12-31T03:33:42.899Z,20.70
2018-12-31T03:36:14.075Z,21.40
2018-12-31T03:38:45.421Z,21.47
2018-12-31T03:41:16.639Z,18.80
2018-12-31T03:43:47.854Z,21.60
2018-12-31T03:46:19.027Z,20.13
2018-12-31T03:48:50.330Z,21.73
2018-12-31T03:51:21.465Z,21.77
2018-12-31T03:53:52.629Z,23.20
2018-12-31T03:56:23.942Z,22.53
2018-12-31T03:58:55.134Z,22.23
2018-12-31T04:01:26.377Z,21.70
2018-12-31T04:03:57.594Z,24.50
2018-12-31T04:06:28.810Z,27.53
2018-12-31T04:09:00.221Z,22.87
2018-12-31T04:11:32.157Z,22.57
2018-12-31T04:14:03.443Z,28.37
2018-12-31T04:16:34.565Z,24.83
2018-12-31T04:19:05.833Z,27.63
2018-12-31T04:21:37.087Z,19.87
2018-12-31T04:24:08.340Z,23.53
2018-12-31T04:26:39.561Z,22.23
2018-12-31T04:29:10.677Z,23.87
2018-12-31T04:31:41.924Z,24.07
2018-12-31T04:34:13.298Z,24.73
2018-12-31T04:36:44.575Z,22.47
2018-12-31T04:39:15.809Z,26.70
2018-12-31T04:41:47.031Z,26.83
2018-12-31T04:44:18.405Z,27.07
2018-12-31T04:46:50.573Z,28.13
2018-12-31T04:49:21.951Z,31.90
2018-12-31T04:51:53.100Z,27.80
2018-12-31T04:54:24.366Z,35.90
2018-12-31T04:56:55.714Z,34.50
2018-12-31T04:59:26.935Z,34.33
2018-12-31T05:01:58.215Z,33.77
2018-12-31T05:04:29.431Z,39.77
2018-12-31T05:07:00.610Z,33.93
2018-12-31T05:09:31.913Z,35.20
2018-12-31T05:12:04.373Z,34.27
2018-12-31T05:14:35.566Z,37.20
2018-12-31T05:17:06.718Z,36.40
2018-12-31T05:19:37.950Z,34.20
2018-12-31T05:22:09.148Z,35.93
2018-12-31T05:24:40.322Z,36.90
2018-12-31T05:27:11.641Z,30.67
2018-12-31T05:29:45.346Z,31.33
2018-12-31T05:32:16.612Z,36.90
2018-12-31T05:34:47.819Z,35.00
2018-12-31T05:37:19.111Z,32.50
2018-12-31T05:39:50.355Z,26.80
2018-12-31T05:42:21.781Z,31.87
2018-12-31T05:44:53.544Z,37.23
2018-12-31T05:47:24.839Z,36.37
2018-12-31T05:49:56.033Z,35.60
2018-12-31T05:52:27.302Z,31.47
2018-12-31T05:54:58.570Z,35.07
2018-12-31T05:57:29.903Z,35.63
2018-12-31T06:00:01.096Z,43.00
2018-12-31T06:02:32.330Z,53.90
2018-12-31T06:05:03.576Z,55.07
2018-12-31T06:07:34.812Z,53.43
2018-12-31T06:10:06.026Z,54.87
2018-12-31T06:12:37.299Z,58.80
2018-12-31T06:15:08.511Z,58.60
2018-12-31T06:17:39.909Z,68.50
2018-12-31T06:20:11.247Z,56.93
2018-12-31T06:22:42.705Z,59.93
2018-12-31T06:25:14.115Z,50.87
2018-12-31T06:27:45.341Z,47.90
2018-12-31T06:30:16.498Z,52.70
2018-12-31T06:32:47.747Z,40.83
2018-12-31T06:35:18.952Z,52.40
2018-12-31T06:37:50.185Z,52.63
2018-12-31T06:40:21.379Z,53.70
2018-12-31T06:42:52.700Z,47.67
2018-12-31T06:45:23.915Z,47.13
2018-12-31T06:47:55.179Z,45.90
2018-12-31T06:50:26.495Z,39.97
2018-12-31T06:52:57.811Z,41.80
2018-12-31T06:55:29.005Z,39.20
2018-12-31T06:58:00.259Z,35.00
2018-12-31T07:00:31.443Z,40.23
2018-12-31T07:03:02.753Z,44.47
2018-12-31T07:05:34.047Z,38.50
2018-12-31T07:08:05.312Z,36.53
2018-12-31T07:10:36.606Z,41.20
2018-12-31T07:13:07.762Z,41.20
2018-12-31T07:15:38.944Z,38.77
2018-12-31T07:18:10.133Z,37.63
2018-12-31T07:20:41.496Z,39.90
2018-12-31T07:23:12.726Z,39.27
2018-12-31T07:25:43.952Z,41.50
2018-12-31T07:28:15.127Z,41.60
2018-12-31T07:30:46.542Z,35.50
2018-12-31T07:33:17.781Z,37.77
2018-12-31T07:35:48.964Z,40.07
2018-12-31T07:38:20.174Z,37.63
2018-12-31T07:40:51.408Z,39.13
2018-12-31T07:43:22.585Z,40.10
2018-12-31T07:45:53.748Z,42.43
2018-12-31T07:48:24.999Z,38.53
2018-12-31T07:50:56.430Z,41.63
2018-12-31T07:53:27.672Z,41.03
2018-12-31T07:55:58.875Z,39.70
2018-12-31T07:58:30.141Z,42.27
2018-12-31T08:01:01.284Z,42.07
2018-12-31T08:03:32.463Z,40.90
2018-12-31T08:06:03.784Z,34.13
2018-12-31T08:08:34.903Z,38.23
2018-12-31T08:11:06.062Z,39.13
2018-12-31T08:13:37.328Z,36.20
2018-12-31T08:16:08.511Z,31.63
2018-12-31T08:18:39.811Z,39.43
2018-12-31T08:21:11.094Z,30.00
2018-12-31T08:23:42.310Z,34.67
2018-12-31T08:26:13.697Z,33.80
2018-12-31T08:28:45.217Z,31.40
2018-12-31T08:31:16.501Z,40.43
2018-12-31T08:33:47.846Z,41.23
2018-12-31T08:36:19.147Z,39.40
2018-12-31T08:38:50.473Z,38.60
2018-12-31T08:41:21.833Z,37.73
2018-12-31T08:43:53.094Z,36.00
2018-12-31T08:46:24.385Z,36.00
2018-12-31T08:48:55.685Z,38.57
2018-12-31T08:51:26.910Z,33.63
2018-12-31T08:54:01.101Z,37.07
2018-12-31T08:56:32.350Z,37.63
2018-12-31T08:59:04.029Z,40.27
2018-12-31T09:01:35.457Z,40.33
2018-12-31T09:04:07.082Z,37.67
2018-12-31T09:06:38.928Z,35.83
2018-12-31T09:09:10.325Z,36.87
2018-12-31T09:11:41.704Z,38.67
2018-12-31T09:14:13.220Z,49.70
2018-12-31T09:16:44.591Z,36.20
2018-12-31T09:19:16.066Z,40.70
2018-12-31T09:21:47.664Z,37.77
2018-12-31T09:24:19.134Z,43.30
2018-12-31T09:26:50.713Z,39.87
2018-12-31T09:29:22.319Z,40.20
2018-12-31T09:31:53.650Z,37.43
2018-12-31T09:34:25.090Z,49.00
2018-12-31T09:36:56.364Z,43.83
2018-12-31T09:39:27.600Z,41.50
2018-12-31T09:41:58.801Z,44.77
2018-12-31T09:44:30.027Z,42.10
2018-12-31T09:47:01.201Z,44.73
2018-12-31T09:49:32.491Z,38.13
2018-12-31T09:52:03.705Z,51.07
2018-12-31T09:54:34.965Z,49.33
2018-12-31T09:57:06.305Z,40.53
2018-12-31T09:59:37.556Z,42.30
2018-12-31T10:02:08.702Z,44.30
2018-12-31T10:04:40.012Z,41.70
2018-12-31T10:07:11.173Z,46.00
2018-12-31T10:09:42.445Z,38.57
2018-12-31T10:12:13.647Z,31.73
2018-12-31T10:14:44.878Z,33.70
2018-12-31T10:17:16.038Z,32.50
2018-12-31T10:19:47.272Z,37.87
2018-12-31T10:22:18.415Z,33.43
2018-12-31T10:24:49.722Z,29.57
2018-12-31T10:27:20.878Z,35.30
2018-12-31T10:29:52.105Z,28.87
2018-12-31T10:32:23.344Z,31.27
2018-12-31T10:34:54.717Z,25.13
2018-12-31T10:37:25.966Z,25.97
2018-12-31T10:39:57.133Z,23.27
2018-12-31T10:42:28.428Z,28.03
2018-12-31T10:44:59.610Z,26.93
2018-12-31T10:47:30.803Z,23.07
2018-12-31T10:50:01.991Z,22.90
2018-12-31T10:52:33.196Z,25.60
2018-12-31T10:55:04.390Z,25.10
2018-12-31T10:57:35.540Z,22.53
2018-12-31T11:00:08.308Z,21.83
2018-12-31T11:02:39.513Z,18.07
2018-12-31T11:05:10.712Z,22.77
2018-12-31T11:07:41.916Z,21.30
2018-12-31T11:10:13.171Z,23.57
2018-12-31T11:12:44.448Z,17.83
2018-12-31T11:15:15.746Z,19.40
2018-12-31T11:17:47.001Z,18.50
2018-12-31T11:20:18.153Z,18.97
2018-12-31T11:22:49.399Z,17.83
2018-12-31T11:25:20.614Z,19.13
2018-12-31T11:27:51.811Z,13.33
2018-12-31T11:30:23.162Z,19.47
2018-12-31T11:32:54.370Z,18.13
2018-12-31T11:35:25.587Z,17.87
2018-12-31T11:37:56.839Z,13.23
2018-12-31T11:40:28.019Z,11.60
2018-12-31T11:42:59.529Z,11.77
2018-12-31T11:45:30.715Z,11.17
2018-12-31T11:48:02.002Z,10.67
2018-12-31T11:50:33.209Z,13.23
2018-12-31T11:53:04.448Z,11.53
2018-12-31T11:55:35.681Z,10.33
2018-12-31T11:58:06.851Z,11.73
2018-12-31T12:00:38.041Z,11.33
2018-12-31T12:03:09.224Z,10.70
2018-12-31T12:05:40.427Z,9.53
2018-12-31T12:08:11.635Z,9.57
2018-12-31T12:10:42.812Z,12.10
2018-12-31T12:13:14.038Z,9.57
2018-12-31T12:15:45.578Z,11.70
2018-12-31T12:18:16.905Z,9.87
2018-12-31T12:20:48.162Z,11.70
2018-12-31T12:23:19.345Z,11.40
2018-12-31T12:25:50.499Z,12.07
2018-12-31T12:28:21.699Z,9.73
2018-12-31T12:30:52.932Z,10.57
2018-12-31T12:33:24.268Z,10.70
2018-12-31T12:35:55.483Z,9.47
2018-12-31T12:38:26.723Z,10.57
2018-12-31T12:40:57.922Z,10.47
2018-12-31T12:43:29.170Z,9.60
2018-12-31T12:46:00.336Z,9.30
2018-12-31T12:48:32.041Z,9.13
2018-12-31T12:51:03.308Z,8.43
2018-12-31T12:53:34.469Z,7.67
2018-12-31T12:56:05.687Z,7.63
2018-12-31T12:58:37.091Z,7.73
2018-12-31T13:01:08.363Z,7.47
2018-12-31T13:03:39.561Z,10.63
2018-12-31T13:06:10.773Z,9.67
2018-12-31T13:08:41.977Z,8.07
2018-12-31T13:11:13.274Z,9.57
2018-12-31T13:13:44.636Z,9.07
2018-12-31T13:16:15.871Z,9.73
2018-12-31T13:18:47.057Z,10.20
2018-12-31T13:21:18.335Z,10.03
2018-12-31T13:23:50.591Z,13.03
2018-12-31T13:26:21.765Z,9.50
2018-12-31T13:28:53.013Z,11.22
2018-12-31T13:31:24.316Z,19.63
2018-12-31T13:33:55.507Z,11.60
2018-12-31T13:36:26.707Z,10.37
2018-12-31T13:38:57.909Z,9.70
2018-12-31T13:41:29.518Z,12.23
2018-12-31T13:44:00.678Z,11.37
2018-12-31T13:46:32.050Z,11.10
2018-12-31T13:49:03.254Z,10.67
2018-12-31T13:51:34.597Z,9.57
2018-12-31T13:54:05.787Z,12.43
2018-12-31T13:56:37.214Z,10.60
2018-12-31T13:59:08.482Z,11.77
2018-12-31T14:01:39.654Z,11.30
2018-12-31T14:04:10.976Z,12.63
2018-12-31T14:06:42.182Z,11.97
2018-12-31T14:09:13.379Z,11.13
2018-12-31T14:11:44.555Z,8.73
2018-12-31T14:16:59.323Z,10.43
2018-12-31T14:19:30.654Z,9.30
2018-12-31T14:22:01.860Z,13.77
2018-12-31T14:24:33.182Z,10.07
2018-12-31T14:27:04.340Z,10.97
2018-12-31T14:29:35.505Z,9.80
2018-12-31T14:32:06.734Z,10.40
2018-12-31T14:34:38.026Z,9.73
2018-12-31T14:37:09.196Z,8.73
2018-12-31T14:39:40.429Z,9.33
2018-12-31T14:42:11.822Z,8.30
2018-12-31T14:44:43.317Z,8.20
2018-12-31T14:47:18.318Z,8.17
2018-12-31T14:49:47.446Z,13.27
2018-12-31T14:52:18.663Z,15.20
2018-12-31T14:54:50.164Z,10.47
2018-12-31T14:57:21.409Z,9.10
2018-12-31T14:59:52.553Z,9.13
2018-12-31T15:02:23.782Z,8.77
2018-12-31T15:04:55.092Z,10.65
2018-12-31T15:07:26.286Z,8.60
2018-12-31T15:09:57.561Z,10.20
2018-12-31T15:12:28.712Z,9.73
2018-12-31T15:14:59.922Z,12.67
2018-12-31T15:17:31.288Z,10.03
2018-12-31T15:20:02.510Z,10.45
2018-12-31T15:22:33.817Z,12.03
2018-12-31T15:25:05.018Z,13.90
2018-12-31T15:27:36.486Z,13.60
2018-12-31T15:30:08.671Z,16.63
2018-12-31T15:32:40.020Z,18.10
2018-12-31T15:35:11.225Z,16.53
2018-12-31T15:37:42.936Z,15.83
2018-12-31T15:40:14.197Z,18.17
2018-12-31T15:42:45.394Z,16.20
2018-12-31T15:45:16.690Z,23.27
2018-12-31T15:47:47.922Z,18.57
2018-12-31T15:50:19.171Z,16.33
2018-12-31T15:52:50.389Z,21.20
2018-12-31T15:55:21.683Z,18.70
2018-12-31T15:57:52.866Z,16.87
2018-12-31T16:00:24.144Z,14.73
2018-12-31T16:02:55.645Z,17.50
2018-12-31T16:05:26.929Z,17.33
2018-12-31T16:07:58.129Z,22.53
2018-12-31T16:10:30.279Z,21.00
2018-12-31T16:13:01.763Z,23.83
2018-12-31T16:15:33.048Z,25.20
2018-12-31T16:18:05.831Z,24.10
2018-12-31T16:20:37.069Z,24.30
2018-12-31T16:23:08.397Z,29.80
2018-12-31T16:25:39.776Z,30.07
2018-12-31T16:28:10.977Z,27.10
2018-12-31T16:30:42.254Z,25.73
2018-12-31T16:33:13.600Z,25.12
2018-12-31T16:35:44.896Z,23.13
2018-12-31T16:38:16.199Z,27.67
2018-12-31T16:40:47.428Z,25.90
2018-12-31T16:43:18.873Z,25.63
2018-12-31T16:45:50.218Z,26.83
2018-12-31T16:48:21.467Z,24.77
2018-12-31T16:50:52.765Z,31.27
2018-12-31T16:53:24.378Z,26.90
2018-12-31T16:55:56.758Z,26.30
2018-12-31T16:58:28.132Z,21.33
2018-12-31T17:00:59.493Z,17.37
2018-12-31T17:03:30.726Z,27.93
2018-12-31T17:06:01.931Z,26.23
2018-12-31T17:08:33.367Z,28.30
2018-12-31T17:11:04.785Z,30.00
2018-12-31T17:13:36.161Z,24.70
2018-12-31T17:16:07.806Z,25.93
2018-12-31T17:18:39.055Z,26.73
2018-12-31T17:21:10.195Z,27.87
2018-12-31T17:23:41.428Z,25.43
2018-12-31T17:26:12.828Z,25.27
2018-12-31T17:28:44.223Z,32.93
2018-12-31T17:31:15.671Z,34.53
2018-12-31T17:33:47.056Z,31.77
2018-12-31T17:36:18.331Z,35.63
2018-12-31T17:38:49.644Z,36.90
2018-12-31T17:41:21.009Z,37.30
2018-12-31T17:43:52.235Z,40.77
2018-12-31T17:46:23.477Z,43.50
2018-12-31T17:48:55.204Z,39.33
2018-12-31T17:51:26.533Z,46.67
2018-12-31T17:53:57.966Z,34.87
2018-12-31T17:56:29.181Z,35.93
2018-12-31T17:59:00.515Z,33.77
2018-12-31T18:01:32.188Z,33.67
2018-12-31T18:04:03.634Z,28.77
2018-12-31T18:06:35.179Z,35.17
2018-12-31T18:09:08.074Z,35.27
2018-12-31T18:11:39.334Z,39.00
2018-12-31T18:14:10.519Z,35.97
2018-12-31T18:16:41.790Z,41.13
2018-12-31T18:19:12.963Z,36.97
2018-12-31T18:21:44.349Z,41.77
2018-12-31T18:24:15.625Z,43.33
2018-12-31T18:26:48.039Z,45.00
2018-12-31T18:29:19.359Z,43.47
2018-12-31T18:31:50.973Z,45.40
2018-12-31T18:34:22.449Z,46.63
2018-12-31T18:36:53.896Z,66.43
2018-12-31T18:39:25.312Z,55.53
2018-12-31T18:41:56.559Z,42.70
2018-12-31T18:44:27.928Z,41.77
2018-12-31T18:46:59.273Z,41.33
2018-12-31T18:49:30.979Z,43.57
2018-12-31T18:52:02.330Z,40.33
2018-12-31T18:54:33.527Z,43.00
2018-12-31T18:57:04.877Z,38.53
2018-12-31T18:59:36.115Z,39.20
2018-12-31T19:02:07.462Z,39.97
2018-12-31T19:04:39.281Z,48.87
2018-12-31T19:07:10.631Z,43.50
2018-12-31T19:09:42.300Z,40.97
2018-12-31T19:12:13.589Z,45.20
2018-12-31T19:14:45.040Z,47.90
2018-12-31T19:17:16.604Z,51.83
2018-12-31T19:19:48.061Z,51.33
2018-12-31T19:22:19.497Z,52.88
2018-12-31T19:25:11.434Z,54.03
2018-12-31T19:27:49.333Z,50.77
2018-12-31T19:30:20.711Z,48.63
2018-12-31T19:32:52.287Z,55.80
2018-12-31T19:35:23.613Z,53.00
2018-12-31T19:37:54.872Z,51.20
2018-12-31T19:40:26.069Z,47.13
2018-12-31T19:42:57.326Z,45.13
2018-12-31T19:45:29.054Z,51.63
2018-12-31T19:48:00.368Z,47.20
2018-12-31T19:50:31.711Z,68.20
2018-12-31T19:53:03.016Z,77.73
2018-12-31T19:55:34.523Z,61.63
2018-12-31T19:58:05.760Z,136.10
2018-12-31T20:00:37.019Z,140.03
2018-12-31T20:03:08.629Z,46.00
2018-12-31T20:05:40.223Z,72.83
2018-12-31T20:08:11.636Z,45.97
2018-12-31T20:10:58.120Z,61.90
2018-12-31T20:13:34.680Z,80.00
2018-12-31T20:16:06.009Z,119.20
2018-12-31T20:18:37.510Z,82.47
2018-12-31T20:21:08.671Z,52.03
2018-12-31T20:23:40.392Z,55.00
2018-12-31T20:26:11.961Z,39.50
2018-12-31T20:28:43.297Z,68.77
2018-12-31T20:31:14.662Z,72.20
2018-12-31T20:33:45.904Z,192.70
2018-12-31T20:36:17.378Z,81.83
2018-12-31T20:38:48.741Z,55.03
2018-12-31T20:41:20.125Z,49.37
2018-12-31T20:43:51.405Z,42.77
2018-12-31T20:46:22.652Z,52.20
2018-12-31T20:48:53.909Z,53.53
2018-12-31T20:51:25.273Z,42.87
2018-12-31T20:53:56.725Z,42.67
2018-12-31T20:56:28.003Z,41.37
2018-12-31T20:58:59.241Z,47.73
2018-12-31T21:01:30.716Z,40.57
2018-12-31T21:04:01.991Z,42.70
2018-12-31T21:06:33.414Z,40.93
2018-12-31T21:09:06.983Z,55.63
2018-12-31T21:11:38.544Z,38.08
2018-12-31T21:14:09.761Z,38.73
2018-12-31T21:16:41.156Z,29.87
2018-12-31T21:19:12.379Z,32.60
2018-12-31T21:21:43.798Z,36.30
2018-12-31T21:24:15.160Z,34.80
2018-12-31T21:26:55.726Z,40.10
2018-12-31T21:29:27.532Z,34.57
2018-12-31T21:31:58.978Z,46.37
2018-12-31T21:34:30.433Z,50.10
2018-12-31T21:37:01.669Z,34.93
2018-12-31T21:39:32.864Z,43.97
2018-12-31T21:42:05.295Z,41.88
2018-12-31T21:44:38.010Z,44.85
2018-12-31T21:47:09.321Z,52.95
2018-12-31T21:49:40.604Z,48.73
2018-12-31T21:52:11.861Z,51.90
2018-12-31T21:54:43.602Z,48.00
2018-12-31T21:57:16.081Z,53.50
2018-12-31T21:59:48.460Z,44.37
2018-12-31T22:02:24.336Z,51.02
2018-12-31T22:04:58.545Z,45.10
2018-12-31T22:07:30.840Z,47.03
2018-12-31T22:10:03.034Z,46.30
2018-12-31T22:12:34.615Z,45.33
2018-12-31T22:15:10.026Z,47.53
2018-12-31T22:17:41.621Z,50.40
2018-12-31T22:20:12.990Z,54.63
2018-12-31T22:22:44.304Z,46.77
2018-12-31T22:25:15.772Z,55.03
2018-12-31T22:27:47.157Z,48.03
2018-12-31T22:30:18.542Z,48.35
2018-12-31T22:32:49.791Z,51.77
2018-12-31T22:35:21.121Z,47.60
2018-12-31T22:37:52.721Z,50.20
2018-12-31T22:40:24.053Z,44.03
2018-12-31T22:42:55.648Z,42.40
2018-12-31T22:45:26.944Z,46.03
2018-12-31T22:47:58.435Z,36.87
2018-12-31T22:50:29.704Z,35.50
2018-12-31T22:53:00.957Z,44.30
2018-12-31T22:55:32.243Z,50.43
2018-12-31T22:58:03.489Z,56.67
2018-12-31T23:00:36.687Z,54.60
2018-12-31T23:03:10.288Z,93.47
2018-12-31T23:05:41.582Z,252.17
2018-12-31T23:08:12.808Z,223.40
2018-12-31T23:10:44.946Z,440.93
2018-12-31T23:13:16.294Z,417.27
2018-12-31T23:15:47.606Z,374.03
2018-12-31T23:18:18.812Z,495.33
2018-12-31T23:20:50.377Z,445.53
2018-12-31T23:23:21.547Z,455.20
2018-12-31T23:25:53.084Z,291.23
2018-12-31T23:28:24.470Z,453.43
2018-12-31T23:30:56.167Z,228.37
2018-12-31T23:33:27.449Z,190.80
2018-12-31T23:35:58.764Z,180.13
2018-12-31T23:38:30.040Z,163.80
2018-12-31T23:41:01.412Z,173.63
2018-12-31T23:43:32.726Z,159.67
2018-12-31T23:46:04.023Z,161.70
2018-12-31T23:48:35.325Z,152.00
2018-12-31T23:51:06.537Z,144.47
2018-12-31T23:53:38.216Z,149.57
2018-12-31T23:56:09.504Z,119.93
2018-12-31T23:58:40.821Z,104.60
